createdAt,value
2022-09-12T00:00:07.018Z,14.40
2022-09-12T00:01:33.647Z,14.40
2022-09-12T00:02:35.705Z,14.40
2022-09-12T00:03:38.701Z,14.30
2022-09-12T00:04:40.750Z,14.30
2022-09-12T00:05:44.444Z,14.30
2022-09-12T00:06:46.274Z,14.30
2022-09-12T00:07:48.374Z,14.30
2022-09-12T00:08:51.823Z,14.30
2022-09-12T00:09:54.349Z,14.30
2022-09-12T00:10:56.248Z,14.30
2022-09-12T00:11:58.081Z,14.30
2022-09-12T00:12:59.853Z,14.30
2022-09-12T00:14:02.073Z,14.30
2022-09-12T00:15:04.984Z,14.30
2022-09-12T00:16:07.882Z,14.20
2022-09-12T00:17:10.229Z,14.30
2022-09-12T00:18:17.049Z,14.20
2022-09-12T00:19:19.249Z,14.20
2022-09-12T00:20:21.016Z,14.20
2022-09-12T00:21:23.309Z,14.20
2022-09-12T00:22:25.105Z,14.20
2022-09-12T00:23:26.927Z,14.20
2022-09-12T00:24:28.697Z,14.20
2022-09-12T00:25:31.289Z,14.20
2022-09-12T00:26:33.879Z,14.20
2022-09-12T00:27:35.898Z,14.20
2022-09-12T00:28:39.963Z,14.20
2022-09-12T00:29:41.917Z,14.20
2022-09-12T00:30:45.477Z,14.20
2022-09-12T00:31:48.176Z,14.20
2022-09-12T00:32:51.587Z,14.20
2022-09-12T00:33:56.649Z,14.20
2022-09-12T00:34:58.678Z,14.20
2022-09-12T00:36:03.831Z,14.20
2022-09-12T00:37:06.051Z,14.30
2022-09-12T00:38:07.992Z,14.30
2022-09-12T00:39:15.023Z,14.30
2022-09-12T00:40:17.813Z,14.30
2022-09-12T00:41:26.380Z,14.30
2022-09-12T00:42:28.157Z,14.30
2022-09-12T00:43:42.093Z,14.20
2022-09-12T00:44:47.805Z,14.20
2022-09-12T00:45:49.695Z,14.20
2022-09-12T00:46:54.928Z,14.20
2022-09-12T00:48:02.077Z,14.20
2022-09-12T00:49:30.604Z,14.20
2022-09-12T00:50:33.525Z,14.20
2022-09-12T00:51:37.788Z,14.20
2022-09-12T00:52:48.934Z,14.20
2022-09-12T00:53:53.940Z,14.20
2022-09-12T00:55:11.055Z,14.20
2022-09-12T00:56:15.793Z,14.20
2022-09-12T00:57:19.832Z,14.20
2022-09-12T00:58:40.895Z,14.20
2022-09-12T00:59:50.611Z,14.30
2022-09-12T01:00:53.047Z,14.30
2022-09-12T01:01:55.961Z,14.20
2022-09-12T01:03:02.002Z,14.30
2022-09-12T01:04:03.993Z,14.20
2022-09-12T01:05:07.962Z,14.20
2022-09-12T01:06:21.851Z,14.20
2022-09-12T01:07:23.992Z,14.30
2022-09-12T01:08:27.399Z,14.20
2022-09-12T01:09:29.179Z,14.20
2022-09-12T01:10:31.572Z,14.20
2022-09-12T01:11:37.658Z,14.10
2022-09-12T01:12:42.415Z,14.20
2022-09-12T01:13:45.858Z,14.10
2022-09-12T01:14:47.647Z,14.10
2022-09-12T01:15:49.595Z,14.10
2022-09-12T01:16:52.031Z,14.10
2022-09-12T01:18:19.343Z,14.10
2022-09-12T01:19:57.674Z,14.10
2022-09-12T01:21:38.025Z,14.00
2022-09-12T01:23:09.252Z,14.00
2022-09-12T01:24:35.571Z,13.90
2022-09-12T01:26:15.620Z,13.90
2022-09-12T01:27:48.214Z,13.90
2022-09-12T01:29:19.260Z,13.90
2022-09-12T01:30:32.537Z,13.80
2022-09-12T01:31:47.705Z,13.80
2022-09-12T01:32:55.527Z,13.70
2022-09-12T01:34:33.923Z,13.80
2022-09-12T01:35:46.057Z,13.80
2022-09-12T01:37:28.671Z,13.70
2022-09-12T01:38:38.049Z,13.70
2022-09-12T01:40:31.559Z,13.70
2022-09-12T01:41:36.439Z,13.70
2022-09-12T01:43:09.535Z,13.60
2022-09-12T01:44:46.723Z,13.70
2022-09-12T01:46:15.797Z,13.60
2022-09-12T01:47:32.961Z,13.60
2022-09-12T01:48:52.926Z,13.60
2022-09-12T01:50:03.492Z,13.60
2022-09-12T01:51:21.982Z,13.60
2022-09-12T01:52:45.668Z,13.60
2022-09-12T01:53:57.727Z,13.60
2022-09-12T01:55:25.412Z,13.60
2022-09-12T01:56:29.783Z,13.60
2022-09-12T01:58:03.279Z,13.60
2022-09-12T01:59:29.447Z,13.60
2022-09-12T02:00:34.662Z,13.60
2022-09-12T02:01:42.515Z,13.60
2022-09-12T02:02:49.350Z,13.60
2022-09-12T02:04:12.440Z,13.60
2022-09-12T02:05:24.418Z,13.60
2022-09-12T02:06:49.218Z,13.60
2022-09-12T02:08:14.239Z,13.60
2022-09-12T02:09:23.785Z,13.60
2022-09-12T02:10:32.555Z,13.60
2022-09-12T02:11:37.313Z,13.60
2022-09-12T02:13:10.929Z,13.60
2022-09-12T02:14:19.444Z,13.60
2022-09-12T02:15:26.698Z,13.60
2022-09-12T02:16:40.472Z,13.60
2022-09-12T02:17:47.822Z,13.60
2022-09-12T02:18:54.364Z,13.60
2022-09-12T02:20:06.038Z,13.60
2022-09-12T02:21:08.554Z,13.70
2022-09-12T02:22:15.709Z,13.60
2022-09-12T02:23:25.349Z,13.60
2022-09-12T02:24:33.853Z,13.70
2022-09-12T02:25:40.159Z,13.70
2022-09-12T02:26:49.910Z,13.70
2022-09-12T02:28:07.053Z,13.70
2022-09-12T02:29:09.038Z,13.70
2022-09-12T02:30:14.563Z,13.60
2022-09-12T02:31:18.905Z,13.70
2022-09-12T02:32:36.599Z,13.70
2022-09-12T02:34:02.083Z,13.70
2022-09-12T02:35:14.735Z,13.70
2022-09-12T02:36:28.370Z,13.60
2022-09-12T02:37:59.663Z,13.60
2022-09-12T02:39:01.820Z,13.60
2022-09-12T02:40:04.030Z,13.60
2022-09-12T02:41:06.287Z,13.60
2022-09-12T02:42:08.140Z,13.60
2022-09-12T02:43:10.032Z,13.60
2022-09-12T02:44:12.198Z,13.60
2022-09-12T02:45:14.333Z,13.70
2022-09-12T02:46:34.482Z,13.60
2022-09-12T02:47:48.405Z,13.70
2022-09-12T02:48:50.901Z,13.60
2022-09-12T02:49:54.067Z,13.60
2022-09-12T02:50:56.499Z,13.60
2022-09-12T02:51:59.496Z,13.60
2022-09-12T02:53:07.306Z,13.60
2022-09-12T02:54:10.148Z,13.70
2022-09-12T02:55:12.532Z,13.60
2022-09-12T02:56:22.311Z,13.60
2022-09-12T02:57:24.363Z,13.70
2022-09-12T02:58:31.425Z,13.60
2022-09-12T02:59:33.419Z,13.60
2022-09-12T03:00:42.958Z,13.60
2022-09-12T03:02:08.228Z,13.70
2022-09-12T03:03:43.586Z,13.70
2022-09-12T03:05:01.869Z,13.60
2022-09-12T03:06:16.311Z,13.60
2022-09-12T03:08:01.998Z,13.60
2022-09-12T03:09:19.639Z,13.60
2022-09-12T03:10:36.473Z,13.60
2022-09-12T03:12:03.201Z,13.60
2022-09-12T03:13:16.932Z,13.60
2022-09-12T03:14:27.944Z,13.50
2022-09-12T03:16:01.989Z,13.50
2022-09-12T03:17:29.298Z,13.50
2022-09-12T03:18:37.311Z,13.50
2022-09-12T03:19:55.395Z,13.50
2022-09-12T03:21:05.845Z,13.60
2022-09-12T03:22:28.671Z,13.50
2022-09-12T03:23:39.023Z,13.60
2022-09-12T03:24:53.094Z,13.50
2022-09-12T03:26:06.449Z,13.50
2022-09-12T03:27:16.850Z,13.60
2022-09-12T03:28:20.095Z,13.60
2022-09-12T03:29:23.012Z,13.50
2022-09-12T03:30:25.301Z,13.60
2022-09-12T03:31:28.017Z,13.60
2022-09-12T03:32:49.307Z,13.60
2022-09-12T03:33:51.484Z,13.60
2022-09-12T03:34:53.287Z,13.50
2022-09-12T03:35:56.051Z,13.60
2022-09-12T03:37:02.932Z,13.60
2022-09-12T03:38:05.394Z,13.60
2022-09-12T03:39:07.414Z,13.60
2022-09-12T03:40:11.977Z,13.60
2022-09-12T03:41:14.044Z,13.50
2022-09-12T03:42:15.968Z,13.60
2022-09-12T03:43:17.941Z,13.50
2022-09-12T03:44:20.180Z,13.50
2022-09-12T03:45:22.250Z,13.50
2022-09-12T03:46:24.487Z,13.60
2022-09-12T03:47:26.536Z,13.50
2022-09-12T03:48:28.310Z,13.50
2022-09-12T03:49:30.377Z,13.50
2022-09-12T03:50:34.626Z,13.50
2022-09-12T03:51:38.167Z,13.60
2022-09-12T03:52:40.183Z,13.50
2022-09-12T03:53:41.945Z,13.50
2022-09-12T03:54:43.716Z,13.50
2022-09-12T03:55:45.777Z,13.50
2022-09-12T03:56:47.583Z,13.50
2022-09-12T03:57:53.541Z,13.50
2022-09-12T03:58:55.488Z,13.50
2022-09-12T03:59:57.867Z,13.50
2022-09-12T04:00:59.910Z,13.50
2022-09-12T04:02:02.265Z,13.50
2022-09-12T04:03:04.308Z,13.50
2022-09-12T04:04:06.168Z,13.50
2022-09-12T04:05:08.404Z,13.50
2022-09-12T04:06:12.043Z,13.50
2022-09-12T04:07:14.010Z,13.50
2022-09-12T04:08:15.838Z,13.50
2022-09-12T04:09:17.712Z,13.50
2022-09-12T04:10:19.774Z,13.50
2022-09-12T04:11:22.742Z,13.50
2022-09-12T04:12:24.664Z,13.50
2022-09-12T04:13:26.644Z,13.50
2022-09-12T04:14:28.491Z,13.50
2022-09-12T04:15:30.456Z,13.50
2022-09-12T04:16:32.897Z,13.60
2022-09-12T04:17:36.157Z,13.50
2022-09-12T04:18:38.351Z,13.60
2022-09-12T04:19:40.272Z,13.60
2022-09-12T04:20:42.848Z,13.60
2022-09-12T04:21:44.788Z,13.60
2022-09-12T04:22:46.714Z,13.60
2022-09-12T04:23:49.235Z,13.60
2022-09-12T04:24:51.062Z,13.60
2022-09-12T04:26:00.147Z,13.60
2022-09-12T04:27:06.017Z,13.60
2022-09-12T04:28:09.624Z,13.60
2022-09-12T04:29:13.029Z,13.60
2022-09-12T04:30:14.894Z,13.60
2022-09-12T04:31:18.624Z,13.60
2022-09-12T04:32:20.933Z,13.70
2022-09-12T04:33:24.209Z,13.60
2022-09-12T04:34:26.572Z,13.70
2022-09-12T04:35:28.765Z,13.70
2022-09-12T04:36:31.272Z,13.70
2022-09-12T04:37:33.162Z,13.70
2022-09-12T04:38:36.517Z,13.70
2022-09-12T04:39:38.726Z,13.70
2022-09-12T04:40:40.669Z,13.70
2022-09-12T04:41:42.746Z,13.70
2022-09-12T04:42:44.883Z,13.70
2022-09-12T04:43:47.945Z,13.70
2022-09-12T04:44:49.870Z,13.70
2022-09-12T04:45:52.215Z,13.70
2022-09-12T04:46:54.068Z,13.70
2022-09-12T04:47:55.844Z,13.70
2022-09-12T04:48:57.722Z,13.70
2022-09-12T04:49:59.655Z,13.70
2022-09-12T04:51:13.803Z,13.70
2022-09-12T04:52:15.577Z,13.70
2022-09-12T04:53:17.482Z,13.70
2022-09-12T04:54:19.998Z,13.70
2022-09-12T04:55:22.392Z,13.80
2022-09-12T04:56:25.185Z,13.80
2022-09-12T04:57:27.030Z,13.80
2022-09-12T04:58:28.818Z,13.80
2022-09-12T04:59:30.618Z,13.80
2022-09-12T05:00:33.169Z,13.80
2022-09-12T05:01:35.716Z,13.80
2022-09-12T05:02:38.344Z,13.90
2022-09-12T05:03:43.575Z,13.90
2022-09-12T05:04:46.985Z,13.90
2022-09-12T05:05:50.539Z,13.90
2022-09-12T05:06:55.057Z,13.90
2022-09-12T05:07:56.956Z,13.90
2022-09-12T05:08:59.780Z,13.90
2022-09-12T05:10:03.138Z,13.90
2022-09-12T05:11:11.275Z,13.90
2022-09-12T05:12:15.010Z,13.90
2022-09-12T05:13:16.755Z,13.90
2022-09-12T05:14:18.616Z,13.90
2022-09-12T05:15:20.578Z,13.90
2022-09-12T05:16:23.724Z,13.90
2022-09-12T05:17:25.654Z,13.90
2022-09-12T05:18:28.458Z,13.90
2022-09-12T05:19:31.793Z,13.90
2022-09-12T05:20:34.113Z,13.90
2022-09-12T05:21:35.912Z,13.90
2022-09-12T05:22:37.831Z,13.90
2022-09-12T05:23:40.187Z,13.90
2022-09-12T05:24:47.254Z,13.90
2022-09-12T05:25:52.458Z,13.90
2022-09-12T05:26:54.576Z,13.90
2022-09-12T05:27:56.903Z,14.00
2022-09-12T05:28:58.641Z,14.00
2022-09-12T05:30:00.540Z,14.00
2022-09-12T05:31:20.083Z,14.00
2022-09-12T05:32:21.995Z,14.00
2022-09-12T05:33:25.209Z,14.00
2022-09-12T05:34:28.025Z,14.00
2022-09-12T05:35:30.213Z,14.00
2022-09-12T05:36:32.192Z,14.00
2022-09-12T05:37:34.219Z,14.00
2022-09-12T05:38:36.753Z,14.00
2022-09-12T05:39:38.694Z,14.00
2022-09-12T05:40:40.704Z,14.00
2022-09-12T05:41:42.511Z,14.00
2022-09-12T05:42:44.333Z,14.10
2022-09-12T05:43:46.919Z,14.10
2022-09-12T05:44:48.816Z,14.10
2022-09-12T05:45:50.948Z,14.10
2022-09-12T05:46:54.054Z,14.10
2022-09-12T05:47:56.279Z,14.10
2022-09-12T05:49:04.209Z,14.10
2022-09-12T05:50:10.834Z,14.10
2022-09-12T05:51:19.416Z,14.10
2022-09-12T05:52:21.261Z,14.20
2022-09-12T05:53:23.311Z,14.20
2022-09-12T05:54:28.295Z,14.20
2022-09-12T05:55:33.475Z,14.20
2022-09-12T05:56:41.333Z,14.20
2022-09-12T05:57:46.451Z,14.20
2022-09-12T05:58:56.512Z,14.20
2022-09-12T05:59:58.472Z,14.20
2022-09-12T06:01:07.584Z,14.20
2022-09-12T06:02:11.011Z,14.20
2022-09-12T06:03:12.908Z,14.20
2022-09-12T06:04:14.937Z,14.20
2022-09-12T06:05:16.866Z,14.20
2022-09-12T06:06:21.437Z,14.20
2022-09-12T06:07:23.399Z,14.20
2022-09-12T06:08:25.249Z,14.20
2022-09-12T06:09:28.184Z,14.20
2022-09-12T06:10:30.040Z,14.20
2022-09-12T06:11:35.296Z,14.20
2022-09-12T06:12:37.230Z,14.20
2022-09-12T06:13:40.311Z,14.20
2022-09-12T06:14:42.413Z,14.20
2022-09-12T06:15:44.249Z,14.20
2022-09-12T06:16:47.287Z,14.20
2022-09-12T06:17:51.358Z,14.20
2022-09-12T06:18:55.517Z,14.20
2022-09-12T06:19:57.439Z,14.20
2022-09-12T06:21:04.015Z,14.20
2022-09-12T06:22:05.896Z,14.20
2022-09-12T06:23:07.689Z,14.20
2022-09-12T06:24:09.832Z,14.20
2022-09-12T06:25:11.671Z,14.20
2022-09-12T06:26:14.231Z,14.20
2022-09-12T06:27:16.344Z,14.20
2022-09-12T06:28:18.262Z,14.20
2022-09-12T06:29:20.181Z,14.20
2022-09-12T06:30:25.314Z,14.20
2022-09-12T06:31:35.287Z,14.20
2022-09-12T06:32:37.168Z,14.30
2022-09-12T06:33:42.592Z,14.20
2022-09-12T06:34:48.424Z,14.30
2022-09-12T06:35:50.357Z,14.20
2022-09-12T06:36:52.207Z,14.30
2022-09-12T06:37:53.986Z,14.30
2022-09-12T06:38:58.353Z,14.30
2022-09-12T06:40:01.983Z,14.30
2022-09-12T06:41:05.501Z,14.30
2022-09-12T06:42:07.574Z,14.30
2022-09-12T06:43:13.702Z,14.30
2022-09-12T06:44:19.434Z,14.30
2022-09-12T06:45:21.435Z,14.30
2022-09-12T06:46:24.195Z,14.30
2022-09-12T06:47:26.092Z,14.30
2022-09-12T06:48:28.622Z,14.30
2022-09-12T06:49:31.657Z,14.30
2022-09-12T06:50:33.532Z,14.30
2022-09-12T06:51:38.041Z,14.40
2022-09-12T06:52:40.044Z,14.40
2022-09-12T06:53:43.255Z,14.30
2022-09-12T06:54:45.121Z,14.40
2022-09-12T06:55:48.211Z,14.40
2022-09-12T06:56:50.092Z,14.40
2022-09-12T06:57:52.282Z,14.40
2022-09-12T06:58:56.845Z,14.40
2022-09-12T06:59:59.052Z,14.50
2022-09-12T07:01:06.651Z,14.50
2022-09-12T07:02:09.984Z,14.50
2022-09-12T07:03:11.887Z,14.50
2022-09-12T07:04:13.700Z,14.50
2022-09-12T07:05:15.877Z,14.60
2022-09-12T07:06:21.212Z,14.60
2022-09-12T07:07:24.308Z,14.60
2022-09-12T07:08:26.145Z,14.60
2022-09-12T07:09:29.709Z,14.60
2022-09-12T07:10:31.551Z,14.70
2022-09-12T07:11:35.641Z,14.70
2022-09-12T07:12:37.655Z,14.70
2022-09-12T07:13:40.966Z,14.80
2022-09-12T07:14:42.754Z,14.80
2022-09-12T07:15:44.516Z,14.80
2022-09-12T07:16:46.365Z,14.80
2022-09-12T07:17:48.190Z,14.90
2022-09-12T07:18:52.326Z,14.90
2022-09-12T07:19:54.157Z,14.90
2022-09-12T07:20:55.952Z,14.90
2022-09-12T07:21:58.789Z,14.90
2022-09-12T07:23:00.872Z,15.00
2022-09-12T07:24:02.916Z,15.00
2022-09-12T07:25:05.197Z,15.00
2022-09-12T07:26:08.086Z,15.10
2022-09-12T07:27:10.039Z,15.10
2022-09-12T07:28:11.990Z,15.20
2022-09-12T07:29:36.581Z,15.20
2022-09-12T07:30:39.582Z,15.20
2022-09-12T07:31:41.535Z,15.20
2022-09-12T07:32:43.325Z,15.30
2022-09-12T07:33:45.300Z,15.30
2022-09-12T07:34:47.514Z,15.40
2022-09-12T07:35:50.035Z,15.40
2022-09-12T07:36:52.073Z,15.40
2022-09-12T07:37:53.895Z,15.50
2022-09-12T07:38:57.586Z,15.60
2022-09-12T07:39:59.770Z,15.60
2022-09-12T07:41:01.893Z,15.60
2022-09-12T07:42:03.802Z,15.70
2022-09-12T07:43:06.000Z,15.70
2022-09-12T07:44:08.015Z,15.80
2022-09-12T07:45:11.164Z,15.80
2022-09-12T07:46:14.453Z,15.90
2022-09-12T07:47:16.579Z,15.90
2022-09-12T07:48:19.497Z,15.90
2022-09-12T07:49:21.289Z,16.00
2022-09-12T07:50:23.081Z,16.10
2022-09-12T07:51:26.185Z,16.10
2022-09-12T07:52:28.066Z,16.20
2022-09-12T07:53:35.309Z,16.20
2022-09-12T07:54:37.360Z,16.30
2022-09-12T07:55:39.214Z,16.30
2022-09-12T07:56:41.732Z,16.30
2022-09-12T07:57:43.561Z,16.40
2022-09-12T07:58:46.054Z,16.40
2022-09-12T07:59:52.815Z,16.50
2022-09-12T08:00:55.139Z,16.50
2022-09-12T08:01:56.876Z,16.60
2022-09-12T08:02:58.693Z,16.60
2022-09-12T08:04:01.563Z,16.70
2022-09-12T08:05:03.686Z,16.70
2022-09-12T08:06:07.567Z,16.80
2022-09-12T08:07:09.797Z,16.80
2022-09-12T08:08:11.829Z,16.80
2022-09-12T08:09:15.435Z,16.80
2022-09-12T08:10:17.323Z,16.80
2022-09-12T08:11:22.252Z,16.80
2022-09-12T08:12:24.055Z,16.90
2022-09-12T08:13:29.866Z,16.90
2022-09-12T08:14:31.852Z,16.90
2022-09-12T08:15:35.096Z,16.90
2022-09-12T08:16:36.910Z,16.90
2022-09-12T08:17:38.696Z,17.00
2022-09-12T08:18:41.083Z,17.00
2022-09-12T08:19:42.942Z,17.00
2022-09-12T08:20:45.123Z,17.00
2022-09-12T08:21:46.926Z,17.10
2022-09-12T08:22:49.533Z,17.10
2022-09-12T08:24:00.786Z,17.10
2022-09-12T08:25:02.685Z,17.20
2022-09-12T08:26:08.758Z,17.20
2022-09-12T08:27:10.704Z,17.30
2022-09-12T08:28:12.930Z,17.30
2022-09-12T08:29:14.812Z,17.40
2022-09-12T08:30:16.617Z,17.40
2022-09-12T08:31:20.320Z,17.40
2022-09-12T08:32:22.185Z,17.50
2022-09-12T08:33:27.287Z,17.50
2022-09-12T08:34:29.621Z,17.60
2022-09-12T08:35:31.548Z,17.60
2022-09-12T08:36:33.699Z,17.70
2022-09-12T08:37:35.490Z,17.70
2022-09-12T08:38:39.418Z,17.70
2022-09-12T08:39:41.192Z,17.80
2022-09-12T08:41:00.105Z,17.80
2022-09-12T08:42:04.420Z,17.90
2022-09-12T08:43:39.898Z,17.90
2022-09-12T08:45:02.724Z,18.00
2022-09-12T08:46:28.837Z,18.00
2022-09-12T08:47:50.144Z,18.00
2022-09-12T08:48:52.548Z,18.10
2022-09-12T08:50:18.890Z,18.10
2022-09-12T08:51:20.879Z,18.20
2022-09-12T08:53:02.380Z,18.20
2022-09-12T08:54:06.242Z,18.30
2022-09-12T08:55:25.163Z,18.30
2022-09-12T08:56:31.670Z,18.40
2022-09-12T08:57:33.944Z,18.50
2022-09-12T08:58:40.597Z,18.70
2022-09-12T08:59:48.463Z,18.90
2022-09-12T09:01:18.658Z,19.10
2022-09-12T09:02:32.202Z,19.30
2022-09-12T09:03:50.412Z,19.50
2022-09-12T09:05:01.782Z,19.80
2022-09-12T09:06:42.249Z,20.10
2022-09-12T09:08:02.650Z,20.50
2022-09-12T09:09:19.524Z,21.10
2022-09-12T09:10:46.464Z,21.50
2022-09-12T09:11:51.017Z,21.70
2022-09-12T09:13:43.585Z,22.00
2022-09-12T09:15:10.430Z,22.10
2022-09-12T09:16:36.439Z,22.50
2022-09-12T09:17:44.909Z,22.90
2022-09-12T09:18:48.405Z,23.40
2022-09-12T09:20:05.992Z,23.80
2022-09-12T09:21:35.015Z,24.30
2022-09-12T09:22:49.717Z,25.00
2022-09-12T09:24:01.167Z,25.40
2022-09-12T09:25:11.248Z,26.00
2022-09-12T09:26:57.230Z,26.60
2022-09-12T09:28:06.327Z,27.30
2022-09-12T09:29:23.937Z,28.00
2022-09-12T09:30:25.800Z,28.50
2022-09-12T09:31:33.769Z,28.90
2022-09-12T09:32:40.908Z,29.30
2022-09-12T09:33:43.736Z,29.60
2022-09-12T09:34:46.576Z,29.80
2022-09-12T09:35:58.255Z,30.10
2022-09-12T09:37:07.547Z,30.40
2022-09-12T09:38:27.616Z,30.70
2022-09-12T09:39:50.207Z,31.00
2022-09-12T09:41:02.811Z,31.20
2022-09-12T09:42:17.998Z,31.60
2022-09-12T09:43:23.795Z,31.80
2022-09-12T09:44:29.035Z,32.10
2022-09-12T09:45:31.583Z,32.30
2022-09-12T09:46:33.908Z,32.50
2022-09-12T09:47:35.789Z,32.70
2022-09-12T09:48:42.302Z,32.90
2022-09-12T09:49:44.380Z,33.20
2022-09-12T09:50:48.708Z,33.40
2022-09-12T09:51:51.119Z,33.70
2022-09-12T09:52:55.887Z,33.80
2022-09-12T09:54:21.028Z,33.90
2022-09-12T09:55:28.202Z,34.00
2022-09-12T09:56:40.902Z,34.10
2022-09-12T09:57:44.719Z,34.20
2022-09-12T09:58:46.630Z,34.30
2022-09-12T09:59:48.732Z,34.40
2022-09-12T10:00:58.261Z,34.60
2022-09-12T10:02:24.268Z,34.90
2022-09-12T10:03:34.461Z,35.20
2022-09-12T10:04:41.621Z,35.50
2022-09-12T10:05:49.492Z,35.90
2022-09-12T10:06:59.686Z,36.20
2022-09-12T10:08:03.316Z,36.30
2022-09-12T10:09:20.310Z,36.50
2022-09-12T10:10:23.284Z,36.70
2022-09-12T10:11:28.457Z,36.80
2022-09-12T10:12:30.312Z,36.80
2022-09-12T10:13:42.273Z,36.80
2022-09-12T10:14:44.218Z,36.70
2022-09-12T10:16:03.665Z,36.70
2022-09-12T10:17:34.115Z,36.90
2022-09-12T10:18:39.432Z,37.10
2022-09-12T10:19:41.419Z,37.40
2022-09-12T10:20:45.550Z,37.70
2022-09-12T10:21:53.533Z,37.80
2022-09-12T10:22:55.382Z,38.00
2022-09-12T10:24:04.339Z,38.10
2022-09-12T10:25:12.158Z,38.20
2022-09-12T10:26:16.517Z,38.40
2022-09-12T10:27:28.217Z,38.70
2022-09-12T10:28:55.153Z,38.80
2022-09-12T10:30:28.546Z,39.00
2022-09-12T10:31:43.121Z,39.10
2022-09-12T10:32:50.691Z,39.10
2022-09-12T10:33:53.815Z,39.10
2022-09-12T10:35:05.887Z,39.10
2022-09-12T10:36:07.923Z,39.10
2022-09-12T10:37:18.035Z,39.10
2022-09-12T10:38:32.633Z,39.10
2022-09-12T10:39:36.345Z,39.00
2022-09-12T10:40:41.181Z,39.00
2022-09-12T10:41:43.130Z,39.00
2022-09-12T10:42:52.234Z,39.00
2022-09-12T10:44:08.907Z,39.20
2022-09-12T10:45:25.508Z,39.30
2022-09-12T10:46:30.166Z,39.50
2022-09-12T10:47:32.818Z,39.60
2022-09-12T10:48:35.683Z,39.90
2022-09-12T10:49:40.632Z,40.10
2022-09-12T10:50:43.933Z,40.20
2022-09-12T10:51:45.812Z,40.50
2022-09-12T10:52:47.643Z,40.70
2022-09-12T10:53:50.109Z,40.70
2022-09-12T10:54:52.890Z,40.70
2022-09-12T10:56:16.855Z,40.50
2022-09-12T10:57:21.646Z,40.50
2022-09-12T10:58:50.430Z,40.50
2022-09-12T11:00:14.870Z,40.50
2022-09-12T11:01:34.070Z,40.60
2022-09-12T11:02:45.242Z,40.60
2022-09-12T11:03:59.034Z,40.70
2022-09-12T11:05:37.853Z,40.80
2022-09-12T11:06:45.927Z,40.90
2022-09-12T11:07:59.194Z,41.10
2022-09-12T11:09:38.252Z,41.10
2022-09-12T11:11:09.870Z,40.80
2022-09-12T11:12:26.861Z,40.50
2022-09-12T11:13:28.627Z,40.40
2022-09-12T11:14:36.723Z,40.40
2022-09-12T11:15:50.241Z,40.50
2022-09-12T11:17:18.559Z,40.50
2022-09-12T11:18:43.359Z,40.50
2022-09-12T11:19:57.224Z,40.50
2022-09-12T11:21:42.052Z,40.30
2022-09-12T11:23:09.088Z,40.00
2022-09-12T11:24:35.471Z,39.70
2022-09-12T11:25:55.808Z,39.40
2022-09-12T11:27:20.684Z,39.20
2022-09-12T11:28:57.765Z,39.20
2022-09-12T11:30:03.288Z,38.40
2022-09-12T11:31:14.006Z,37.80
2022-09-12T11:32:37.316Z,37.00
2022-09-12T11:33:47.881Z,36.20
2022-09-12T11:35:17.122Z,35.50
2022-09-12T11:36:37.214Z,34.90
2022-09-12T11:38:12.266Z,34.10
2022-09-12T11:39:38.340Z,33.30
2022-09-12T11:40:48.749Z,32.60
2022-09-12T11:41:57.361Z,31.90
2022-09-12T11:43:29.659Z,31.40
2022-09-12T11:44:42.798Z,31.00
2022-09-12T11:45:46.667Z,30.50
2022-09-12T11:46:51.951Z,30.10
2022-09-12T11:47:58.967Z,29.80
2022-09-12T11:49:09.372Z,29.60
2022-09-12T11:50:28.469Z,29.30
2022-09-12T11:51:41.983Z,29.00
2022-09-12T11:52:43.944Z,28.80
2022-09-12T11:53:50.596Z,28.60
2022-09-12T11:55:11.829Z,28.40
2022-09-12T11:56:20.077Z,28.20
2022-09-12T11:57:52.849Z,28.00
2022-09-12T11:59:04.667Z,27.80
2022-09-12T12:00:20.194Z,27.70
2022-09-12T12:01:27.554Z,27.50
2022-09-12T12:02:33.026Z,27.40
2022-09-12T12:03:44.454Z,27.30
2022-09-12T12:05:22.286Z,27.20
2022-09-12T12:06:32.939Z,27.10
2022-09-12T12:07:48.875Z,27.00
2022-09-12T12:08:51.115Z,27.00
2022-09-12T12:09:53.287Z,26.90
2022-09-12T12:11:01.029Z,26.80
2022-09-12T12:12:15.637Z,26.80
2022-09-12T12:13:26.317Z,26.80
2022-09-12T12:14:46.164Z,26.70
2022-09-12T12:15:55.322Z,26.70
2022-09-12T12:16:57.805Z,26.60
2022-09-12T12:18:06.043Z,26.50
2022-09-12T12:19:14.067Z,26.50
2022-09-12T12:20:19.487Z,26.40
2022-09-12T12:21:39.472Z,26.30
2022-09-12T12:22:51.891Z,26.30
2022-09-12T12:24:09.084Z,26.20
2022-09-12T12:25:17.203Z,26.10
2022-09-12T12:26:48.401Z,26.10
2022-09-12T12:27:56.604Z,26.10
2022-09-12T12:28:59.730Z,26.00
2022-09-12T12:30:01.604Z,25.90
2022-09-12T12:31:03.930Z,25.90
2022-09-12T12:32:06.236Z,25.70
2022-09-12T12:33:10.635Z,25.70
2022-09-12T12:34:26.929Z,25.60
2022-09-12T12:35:43.290Z,25.60
2022-09-12T12:36:45.167Z,25.50
2022-09-12T12:37:52.814Z,25.50
2022-09-12T12:38:55.252Z,25.50
2022-09-12T12:40:08.572Z,25.50
2022-09-12T12:41:19.305Z,25.50
2022-09-12T12:42:35.672Z,25.50
2022-09-12T12:43:37.666Z,25.40
2022-09-12T12:44:45.767Z,25.30
2022-09-12T12:45:49.996Z,25.30
2022-09-12T12:47:28.624Z,25.30
2022-09-12T12:48:33.695Z,25.30
2022-09-12T12:49:35.836Z,25.30
2022-09-12T12:50:37.946Z,25.30
2022-09-12T12:51:55.135Z,25.20
2022-09-12T12:53:05.942Z,25.20
2022-09-12T12:54:28.413Z,25.20
2022-09-12T12:55:42.014Z,25.10
2022-09-12T12:56:44.217Z,25.10
2022-09-12T12:57:49.693Z,25.10
2022-09-12T12:58:58.841Z,25.10
2022-09-12T13:00:06.625Z,25.10
2022-09-12T13:01:14.362Z,25.10
2022-09-12T13:02:30.396Z,25.00
2022-09-12T13:03:34.336Z,25.00
2022-09-12T13:04:36.499Z,24.90
2022-09-12T13:05:47.281Z,24.80
2022-09-12T13:07:08.847Z,24.80
2022-09-12T13:08:17.823Z,24.80
2022-09-12T13:09:38.167Z,24.80
2022-09-12T13:10:52.709Z,24.80
2022-09-12T13:12:01.606Z,24.70
2022-09-12T13:13:08.757Z,24.70
2022-09-12T13:14:31.927Z,24.70
2022-09-12T13:15:36.759Z,24.70
2022-09-12T13:16:59.523Z,24.70
2022-09-12T13:18:13.726Z,24.70
2022-09-12T13:19:23.672Z,24.60
2022-09-12T13:20:31.843Z,24.60
2022-09-12T13:21:34.211Z,24.50
2022-09-12T13:22:48.781Z,24.50
2022-09-12T13:24:22.424Z,24.50
2022-09-12T13:25:35.314Z,24.50
2022-09-12T13:26:44.255Z,24.50
2022-09-12T13:27:58.268Z,24.40
2022-09-12T13:29:19.732Z,24.40
2022-09-12T13:30:21.672Z,24.40
2022-09-12T13:31:30.196Z,24.40
2022-09-12T13:32:32.413Z,24.40
2022-09-12T13:33:54.678Z,24.40
2022-09-12T13:35:14.003Z,24.40
2022-09-12T13:36:31.007Z,24.40
2022-09-12T13:38:04.872Z,24.40
2022-09-12T13:39:28.915Z,24.40
2022-09-12T13:40:33.674Z,24.40
2022-09-12T13:41:57.692Z,24.40
2022-09-12T13:43:13.957Z,24.50
2022-09-12T13:44:19.102Z,24.50
2022-09-12T13:45:23.273Z,24.50
2022-09-12T13:46:32.919Z,24.50
2022-09-12T13:47:40.033Z,24.50
2022-09-12T13:48:42.597Z,24.50
2022-09-12T13:49:45.902Z,24.50
2022-09-12T13:50:58.520Z,24.50
2022-09-12T13:52:04.828Z,24.50
2022-09-12T13:53:14.831Z,24.50
2022-09-12T13:54:23.814Z,24.50
2022-09-12T13:55:39.130Z,24.40
2022-09-12T13:56:50.471Z,24.40
2022-09-12T13:58:06.846Z,24.40
2022-09-12T13:59:12.448Z,24.30
2022-09-12T14:00:20.040Z,24.30
2022-09-12T14:01:23.184Z,24.30
2022-09-12T14:02:28.949Z,24.30
2022-09-12T14:03:56.759Z,24.30
2022-09-12T14:05:10.334Z,24.30
2022-09-12T14:06:13.331Z,24.30
2022-09-12T14:07:21.304Z,24.30
2022-09-12T14:08:24.518Z,24.30
2022-09-12T14:09:32.693Z,24.30
2022-09-12T14:10:37.896Z,24.30
2022-09-12T14:11:40.039Z,24.30
2022-09-12T14:12:43.546Z,24.30
2022-09-12T14:13:46.223Z,24.20
2022-09-12T14:14:50.288Z,24.30
2022-09-12T14:15:55.288Z,24.30
2022-09-12T14:16:58.778Z,24.30
2022-09-12T14:18:02.170Z,24.30
2022-09-12T14:19:05.420Z,24.30
2022-09-12T14:20:13.515Z,24.30
2022-09-12T14:21:36.833Z,24.30
2022-09-12T14:22:39.676Z,24.30
2022-09-12T14:23:48.094Z,24.30
2022-09-12T14:24:51.636Z,24.30
2022-09-12T14:25:56.289Z,24.30
2022-09-12T14:26:58.899Z,24.30
2022-09-12T14:28:01.384Z,24.30
2022-09-12T14:29:06.916Z,24.30
2022-09-12T14:30:22.222Z,24.30
2022-09-12T14:31:29.546Z,24.30
2022-09-12T14:32:31.450Z,24.30
2022-09-12T14:33:47.172Z,24.30
2022-09-12T14:35:20.403Z,24.30
2022-09-12T14:36:31.806Z,24.30
2022-09-12T14:37:33.797Z,24.20
2022-09-12T14:38:40.230Z,24.20
2022-09-12T14:39:45.611Z,24.20
2022-09-12T14:40:52.068Z,24.20
2022-09-12T14:42:07.148Z,24.10